map of BSR home
BSR - Airport
Location
City:  Basrah, Iraq
Name:Basrah International Airport
ICAO:ORMM
IATA:BSR

Details
Type:Airport (Aerodrome, Airfield)
Use:Public/Civil, Military, International (customs port of entry)
Latitude:3032'57"N (30.549068)
Longitude:4739'44"E (47.662142)
Elevation:11 ft (3 m)
Variation:3.91E (WMM2015v2 magnetic declination)
0.05 annual change
Runways:1
Longest:13123 × 148 ft (4000 × 45 m)

Time
Time Zone:UTC+3 (DST+4)

Weather
METAR:ORMM 041400Z 31010KT CAVOK 18/03 Q1023 NOSIG
TAF:ORMM 041000Z 0412/0512 30012KT CAVOK
TEMPO 0500/0505 6000 NSC

Related Locations
Nearby:
Farthest:GMR: 11894 mi / 19141 km
Mangareva [Totegegie], Gambier Islands, PF

Find:

   beyond  
but within

Other Information
Maps:
NOTAMs:
Links:
Sources:

  
  • flag of Iraq
  

Sectional Chart

Flight Planning
at skyvector.com

Satellite Image

Google Maps Satellite view

 

Copyright © 2004-2019 Karl L. Swartz. All rights reserved.
The Great Circle Mapper name and logo are trademarks of the Great Circle Mapper.
All other trademarks mentioned herein belong to their respective owners.
Please see credits for attibutions and further copyright information.

  Follow gcmap on Facebook Follow gcmap on Twitter GCmap on LinkedIn

hCard Microformat

Geo Microformat